createdAt,value
2018-09-27T00:01:52.137Z,7.93
2018-09-27T00:03:55.317Z,7.17
2018-09-27T00:05:58.862Z,9.47
2018-09-27T00:08:02.096Z,7.33
2018-09-27T00:10:05.844Z,16.30
2018-09-27T00:12:09.244Z,11.70
2018-09-27T00:14:12.436Z,5.93
2018-09-27T00:16:15.988Z,10.17
2018-09-27T00:18:19.526Z,7.70
2018-09-27T00:20:22.713Z,9.20
2018-09-27T00:22:26.078Z,8.90
2018-09-27T00:24:29.304Z,11.93
2018-09-27T00:26:32.492Z,10.73
2018-09-27T00:28:36.050Z,7.07
2018-09-27T00:30:39.780Z,8.77
2018-09-27T00:32:42.956Z,9.37
2018-09-27T00:34:46.742Z,15.70
2018-09-27T00:36:50.264Z,12.10
2018-09-27T00:38:53.536Z,13.03
2018-09-27T00:40:56.844Z,6.50
2018-09-27T00:43:00.122Z,10.43
2018-09-27T00:45:03.510Z,8.03
2018-09-27T00:47:06.691Z,11.30
2018-09-27T00:49:10.073Z,8.47
2018-09-27T00:51:13.281Z,8.63
2018-09-27T00:53:16.471Z,5.90
2018-09-27T00:55:19.852Z,6.20
2018-09-27T00:57:23.036Z,6.13
2018-09-27T00:59:26.559Z,4.80
2018-09-27T01:01:29.784Z,14.20
2018-09-27T01:03:32.969Z,10.27
2018-09-27T01:05:36.763Z,6.33
2018-09-27T01:07:39.974Z,5.27
2018-09-27T01:09:43.198Z,8.70
2018-09-27T01:11:46.397Z,5.23
2018-09-27T01:13:49.607Z,7.27
2018-09-27T01:15:52.800Z,8.20
2018-09-27T01:17:56.048Z,8.53
2018-09-27T01:19:59.263Z,7.63
2018-09-27T01:22:02.479Z,7.23
2018-09-27T01:24:05.676Z,9.67
2018-09-27T01:26:09.224Z,7.33
2018-09-27T01:30:22.164Z,11.00
2018-09-27T01:32:25.692Z,5.67
2018-09-27T01:34:28.896Z,15.10
2018-09-27T01:36:32.356Z,9.23
2018-09-27T01:38:35.617Z,9.30
2018-09-27T01:40:38.849Z,4.53
2018-09-27T01:42:42.337Z,8.43
2018-09-27T01:44:45.555Z,15.03
2018-09-27T01:46:48.777Z,5.33
2018-09-27T01:48:52.015Z,8.97
2018-09-27T01:50:55.468Z,9.33
2018-09-27T01:52:58.704Z,8.63
2018-09-27T01:55:01.894Z,6.83
2018-09-27T01:57:05.105Z,10.47
2018-09-27T01:59:08.405Z,13.23
2018-09-27T02:01:11.613Z,13.03
2018-09-27T02:03:15.161Z,8.50
2018-09-27T02:05:18.348Z,8.70
2018-09-27T02:07:21.548Z,7.30
2018-09-27T02:09:24.737Z,9.47
2018-09-27T02:11:27.950Z,10.87
2018-09-27T02:13:31.236Z,6.17
2018-09-27T02:15:34.440Z,9.43
2018-09-27T02:17:37.664Z,9.00
2018-09-27T02:19:41.229Z,7.37
2018-09-27T02:21:44.378Z,8.17
2018-09-27T02:23:47.747Z,7.20
2018-09-27T02:25:51.048Z,9.87
2018-09-27T02:27:54.294Z,5.23
2018-09-27T02:29:57.474Z,13.63
2018-09-27T02:32:00.644Z,5.77
2018-09-27T02:34:04.188Z,4.37
2018-09-27T02:36:07.383Z,6.07
2018-09-27T02:38:10.637Z,4.90
2018-09-27T02:40:13.940Z,13.13
2018-09-27T02:42:17.316Z,10.13
2018-09-27T02:44:20.565Z,9.13
2018-09-27T02:46:24.237Z,10.40
2018-09-27T02:48:27.434Z,20.20
2018-09-27T02:50:30.705Z,11.83
2018-09-27T02:52:34.585Z,10.57
2018-09-27T02:54:37.777Z,4.23
2018-09-27T02:56:41.148Z,13.00
2018-09-27T02:58:44.382Z,6.70
2018-09-27T03:00:47.847Z,5.53
2018-09-27T03:02:51.036Z,13.30
2018-09-27T03:04:54.284Z,9.03
2018-09-27T03:06:57.465Z,14.73
2018-09-27T03:09:00.640Z,13.77
2018-09-27T03:11:04.068Z,12.30
2018-09-27T03:13:07.244Z,8.97
2018-09-27T03:15:11.109Z,13.00
2018-09-27T03:17:14.436Z,6.50
2018-09-27T03:19:17.986Z,21.77
2018-09-27T03:21:21.164Z,17.63
2018-09-27T03:23:24.379Z,15.93
2018-09-27T03:25:27.921Z,11.63
2018-09-27T03:27:31.100Z,11.00
2018-09-27T03:29:34.601Z,13.13
2018-09-27T03:31:37.807Z,10.63
2018-09-27T03:33:41.072Z,13.70
2018-09-27T03:35:44.277Z,6.07
2018-09-27T03:37:48.272Z,12.50
2018-09-27T03:39:51.557Z,8.13
2018-09-27T03:41:54.881Z,12.50
2018-09-27T03:43:58.109Z,11.03
2018-09-27T03:46:01.940Z,12.50
2018-09-27T03:48:05.476Z,7.30
2018-09-27T03:50:08.817Z,14.33
2018-09-27T03:52:12.016Z,9.37
2018-09-27T03:54:15.232Z,19.67
2018-09-27T03:56:18.582Z,11.37
2018-09-27T03:58:21.814Z,9.63
2018-09-27T04:00:25.321Z,14.43
2018-09-27T04:02:28.912Z,6.00
2018-09-27T04:04:32.195Z,23.00
2018-09-27T04:06:35.465Z,10.60
2018-09-27T04:08:38.876Z,11.13
2018-09-27T04:10:42.515Z,14.83
2018-09-27T04:12:45.854Z,10.37
2018-09-27T04:14:49.127Z,12.20
2018-09-27T04:16:52.858Z,15.87
2018-09-27T04:18:56.040Z,12.17
2018-09-27T04:20:59.343Z,9.37
2018-09-27T04:23:02.528Z,26.87
2018-09-27T04:25:06.080Z,13.77
2018-09-27T04:27:11.115Z,7.40
2018-09-27T04:29:14.868Z,11.90
2018-09-27T04:31:18.979Z,11.53
2018-09-27T04:33:23.128Z,16.80
2018-09-27T04:35:26.358Z,16.23
2018-09-27T04:37:29.648Z,16.47
2018-09-27T04:39:32.862Z,12.03
2018-09-27T04:41:36.050Z,7.17
2018-09-27T04:43:39.232Z,14.90
2018-09-27T04:45:42.456Z,8.93
2018-09-27T04:47:45.924Z,11.17
2018-09-27T04:49:49.184Z,13.73
2018-09-27T04:51:52.420Z,14.20
2018-09-27T04:53:55.815Z,7.30
2018-09-27T04:55:59.053Z,20.90
2018-09-27T04:58:02.254Z,10.30
2018-09-27T05:00:05.511Z,13.50
2018-09-27T05:02:08.878Z,7.27
2018-09-27T05:04:12.077Z,14.17
2018-09-27T05:06:15.311Z,15.63
2018-09-27T05:08:18.692Z,14.57
2018-09-27T05:10:22.824Z,10.97
2018-09-27T05:12:26.012Z,8.80
2018-09-27T05:14:29.572Z,13.60
2018-09-27T05:16:32.772Z,21.73
2018-09-27T05:18:36.500Z,17.17
2018-09-27T05:20:39.696Z,22.03
2018-09-27T05:22:42.887Z,16.13
2018-09-27T05:24:46.268Z,10.30
2018-09-27T05:26:49.525Z,17.33
2018-09-27T05:28:52.715Z,11.67
2018-09-27T05:30:56.104Z,11.73
2018-09-27T05:32:59.330Z,16.17
2018-09-27T05:35:02.592Z,14.43
2018-09-27T05:37:06.326Z,14.53
2018-09-27T05:39:10.570Z,16.80
2018-09-27T05:41:13.776Z,14.47
2018-09-27T05:43:16.968Z,14.40
2018-09-27T05:45:21.176Z,19.37
2018-09-27T05:47:24.798Z,10.60
2018-09-27T05:49:28.367Z,18.07
2018-09-27T05:51:31.791Z,11.27
2018-09-27T05:53:35.154Z,12.23
2018-09-27T05:55:38.555Z,14.30
2018-09-27T05:57:41.792Z,18.97
2018-09-27T05:59:45.188Z,16.87
2018-09-27T06:01:48.459Z,11.93
2018-09-27T06:03:51.844Z,9.77
2018-09-27T06:05:55.168Z,12.20
2018-09-27T06:07:58.401Z,19.23
2018-09-27T06:10:02.132Z,11.47
2018-09-27T06:12:05.312Z,16.80
2018-09-27T06:14:08.586Z,21.87
2018-09-27T06:16:12.490Z,22.67
2018-09-27T06:18:15.679Z,14.23
2018-09-27T06:20:18.968Z,15.97
2018-09-27T06:22:22.497Z,13.50
2018-09-27T06:24:25.756Z,14.33
2018-09-27T06:26:29.862Z,17.83
2018-09-27T06:28:33.059Z,22.70
2018-09-27T06:30:36.344Z,19.50
2018-09-27T06:32:39.956Z,13.10
2018-09-27T06:34:43.295Z,18.43
2018-09-27T06:36:46.723Z,25.70
2018-09-27T06:38:49.899Z,27.10
2018-09-27T06:40:53.129Z,18.93
2018-09-27T06:42:56.352Z,20.60
2018-09-27T06:44:59.608Z,26.37
2018-09-27T06:47:03.027Z,14.13
2018-09-27T06:49:07.100Z,26.03
2018-09-27T06:51:10.476Z,20.33
2018-09-27T06:53:13.646Z,18.17
2018-09-27T06:55:17.097Z,18.40
2018-09-27T06:57:20.316Z,21.50
2018-09-27T06:59:23.572Z,25.30
2018-09-27T07:01:27.148Z,21.20
2018-09-27T07:03:30.332Z,23.63
2018-09-27T07:05:33.525Z,18.93
2018-09-27T07:07:36.779Z,26.70
2018-09-27T07:09:39.992Z,23.83
2018-09-27T07:11:43.199Z,23.57
2018-09-27T07:13:46.687Z,17.57
2018-09-27T07:15:49.908Z,14.10
2018-09-27T07:17:53.151Z,23.83
2018-09-27T07:19:56.702Z,20.33
2018-09-27T07:21:59.899Z,26.17
2018-09-27T07:24:03.092Z,23.23
2018-09-27T07:26:06.629Z,22.37
2018-09-27T07:28:09.814Z,27.27
2018-09-27T07:30:13.448Z,29.00
2018-09-27T07:32:16.662Z,31.23
2018-09-27T07:34:19.964Z,30.23
2018-09-27T07:36:23.224Z,26.80
2018-09-27T07:38:26.487Z,34.10
2018-09-27T07:40:29.876Z,23.70
2018-09-27T07:42:33.139Z,24.43
2018-09-27T07:44:36.878Z,17.27
2018-09-27T07:46:40.274Z,20.63
2018-09-27T07:48:43.579Z,22.13
2018-09-27T07:50:46.804Z,22.63
2018-09-27T07:52:50.096Z,26.10
2018-09-27T07:54:53.330Z,27.63
2018-09-27T07:56:56.716Z,15.63
2018-09-27T07:58:59.996Z,20.80
2018-09-27T08:01:03.196Z,22.33
2018-09-27T08:03:06.755Z,17.70
2018-09-27T08:05:10.112Z,22.63
2018-09-27T08:07:13.358Z,29.43
2018-09-27T08:09:16.802Z,25.80
2018-09-27T08:11:20.350Z,29.03
2018-09-27T08:13:23.600Z,27.20
2018-09-27T08:15:26.820Z,26.80
2018-09-27T08:17:29.988Z,27.53
2018-09-27T08:19:33.168Z,23.23
2018-09-27T08:21:36.369Z,23.80
2018-09-27T08:23:39.548Z,25.70
2018-09-27T08:25:42.793Z,23.47
2018-09-27T08:27:45.988Z,21.83
2018-09-27T08:29:49.205Z,25.80
2018-09-27T08:31:52.484Z,15.97
2018-09-27T08:33:55.785Z,19.73
2018-09-27T08:35:58.973Z,17.83
2018-09-27T08:38:02.168Z,33.43
2018-09-27T08:40:05.884Z,17.77
2018-09-27T08:42:09.089Z,23.03
2018-09-27T08:44:12.364Z,23.60
2018-09-27T08:46:16.159Z,30.97
2018-09-27T08:48:19.392Z,26.97
2018-09-27T08:50:23.138Z,23.07
2018-09-27T08:52:26.329Z,19.53
2018-09-27T08:54:29.512Z,31.40
2018-09-27T08:56:32.739Z,28.70
2018-09-27T08:58:36.152Z,17.63
2018-09-27T09:00:40.000Z,26.53
2018-09-27T09:02:43.296Z,22.03
2018-09-27T09:04:46.579Z,25.67
2018-09-27T09:06:49.836Z,21.93
2018-09-27T09:08:53.048Z,33.13
2018-09-27T09:10:56.252Z,25.20
2018-09-27T09:12:59.445Z,20.67
2018-09-27T09:15:02.644Z,25.50
2018-09-27T09:17:06.176Z,23.30
2018-09-27T09:19:09.376Z,30.40
2018-09-27T09:21:12.561Z,20.03
2018-09-27T09:23:16.494Z,25.30
2018-09-27T09:25:19.784Z,24.23
2018-09-27T09:27:23.091Z,18.00
2018-09-27T09:29:26.637Z,28.67
2018-09-27T09:31:30.286Z,25.57
2018-09-27T09:33:33.581Z,26.50
2018-09-27T09:35:36.977Z,13.80
2018-09-27T09:37:40.367Z,15.07
2018-09-27T09:39:44.636Z,14.90
2018-09-27T09:41:47.832Z,30.10
2018-09-27T09:43:51.032Z,26.30
2018-09-27T09:45:54.852Z,20.97
2018-09-27T09:47:58.425Z,17.40
2018-09-27T09:50:01.779Z,16.90
2018-09-27T09:52:05.085Z,12.93
2018-09-27T09:54:08.300Z,12.20
2018-09-27T09:56:11.479Z,9.87
2018-09-27T09:58:14.710Z,10.17
2018-09-27T10:00:18.901Z,12.13
2018-09-27T10:02:22.699Z,13.33
2018-09-27T10:04:26.112Z,10.27
2018-09-27T10:06:29.314Z,11.00
2018-09-27T10:08:32.536Z,11.10
2018-09-27T10:10:35.735Z,10.50
2018-09-27T10:12:38.945Z,10.03
2018-09-27T10:14:42.465Z,19.00
2018-09-27T10:16:45.680Z,15.03
2018-09-27T10:18:48.888Z,12.60
2018-09-27T10:20:52.338Z,14.37
2018-09-27T10:22:55.512Z,10.30
2018-09-27T10:24:58.755Z,10.33
2018-09-27T10:27:01.989Z,20.43
2018-09-27T10:29:05.897Z,11.10
2018-09-27T10:31:09.310Z,8.00
2018-09-27T10:33:12.651Z,11.20
2018-09-27T10:35:16.037Z,13.43
2018-09-27T10:37:19.290Z,9.20
2018-09-27T10:39:22.540Z,10.87
2018-09-27T10:41:26.157Z,18.60
2018-09-27T10:43:29.386Z,8.40
2018-09-27T10:45:32.580Z,11.40
2018-09-27T10:47:36.125Z,13.17
2018-09-27T10:49:39.556Z,6.27
2018-09-27T10:51:43.240Z,12.00
2018-09-27T10:53:46.615Z,8.70
2018-09-27T10:55:49.966Z,11.43
2018-09-27T10:57:53.192Z,13.83
2018-09-27T10:59:56.492Z,15.63
2018-09-27T11:01:59.689Z,17.20
2018-09-27T11:04:03.006Z,12.90
2018-09-27T11:06:07.008Z,20.73
2018-09-27T11:08:10.230Z,13.60
2018-09-27T11:10:13.448Z,16.10
2018-09-27T11:12:17.016Z,9.13
2018-09-27T11:14:20.199Z,13.47
2018-09-27T11:16:23.400Z,17.07
2018-09-27T11:18:26.800Z,17.27
2018-09-27T11:20:30.028Z,15.67
2018-09-27T11:22:33.288Z,18.17
2018-09-27T11:24:36.477Z,13.37
2018-09-27T11:26:39.711Z,17.50
2018-09-27T11:28:48.576Z,22.03
2018-09-27T11:30:57.280Z,10.67
2018-09-27T11:33:00.544Z,16.10
2018-09-27T11:35:04.258Z,10.40
2018-09-27T11:37:07.472Z,14.43
2018-09-27T11:39:11.505Z,13.07
2018-09-27T11:41:14.703Z,11.50
2018-09-27T11:43:18.072Z,11.13
2018-09-27T11:45:21.268Z,16.70
2018-09-27T11:47:24.477Z,16.73
2018-09-27T11:49:27.861Z,11.00
2018-09-27T11:51:31.118Z,17.93
2018-09-27T11:53:34.532Z,12.40
2018-09-27T11:55:37.744Z,13.43
2018-09-27T11:57:41.266Z,15.00
2018-09-27T11:59:44.476Z,13.37
2018-09-27T12:01:48.505Z,17.30
2018-09-27T12:03:51.724Z,18.60
2018-09-27T12:05:54.980Z,10.77
2018-09-27T12:08:00.020Z,16.50
2018-09-27T12:10:03.826Z,12.93
2018-09-27T12:12:07.425Z,12.70
2018-09-27T12:14:11.678Z,11.20
2018-09-27T12:16:15.350Z,10.80
2018-09-27T12:18:18.554Z,19.23
2018-09-27T12:20:22.213Z,12.67
2018-09-27T12:22:25.424Z,19.03
2018-09-27T12:24:28.612Z,10.70
2018-09-27T12:26:32.260Z,15.63
2018-09-27T12:28:35.532Z,11.10
2018-09-27T12:30:38.895Z,14.73
2018-09-27T12:32:42.132Z,13.70
2018-09-27T12:34:45.312Z,14.57
2018-09-27T12:36:48.692Z,15.17
2018-09-27T12:38:52.342Z,14.70
2018-09-27T12:40:55.675Z,15.13
2018-09-27T12:42:59.370Z,12.40
2018-09-27T12:45:02.682Z,14.97
2018-09-27T12:47:06.073Z,10.73
2018-09-27T12:49:10.073Z,11.93
2018-09-27T12:51:14.708Z,26.83
2018-09-27T12:53:18.134Z,11.87
2018-09-27T12:55:21.391Z,23.23
2018-09-27T12:57:24.685Z,7.53
2018-09-27T12:59:28.375Z,18.30
2018-09-27T13:01:31.791Z,14.20
2018-09-27T13:03:35.152Z,11.80
2018-09-27T13:05:38.692Z,10.97
2018-09-27T13:07:42.129Z,12.00
2018-09-27T13:09:46.017Z,10.17
2018-09-27T13:11:49.477Z,12.87
2018-09-27T13:13:52.820Z,11.60
2018-09-27T13:15:56.103Z,11.77
2018-09-27T13:17:59.432Z,15.33
2018-09-27T13:20:03.217Z,10.73
2018-09-27T13:22:06.940Z,11.63
2018-09-27T13:24:10.157Z,12.83
2018-09-27T13:26:13.572Z,10.43
2018-09-27T13:28:16.795Z,15.83
2018-09-27T13:30:20.149Z,18.53
2018-09-27T13:32:23.782Z,11.47
2018-09-27T13:34:26.988Z,9.47
2018-09-27T13:36:30.648Z,16.53
2018-09-27T13:38:34.272Z,18.30
2018-09-27T13:40:37.488Z,17.27
2018-09-27T13:50:50.783Z,9.90
2018-09-27T13:52:54.141Z,16.47
2018-09-27T13:54:58.366Z,13.70
2018-09-27T13:57:02.327Z,16.50
2018-09-27T13:59:06.872Z,16.87
2018-09-27T14:01:10.381Z,15.18
2018-09-27T14:03:13.753Z,15.50
2018-09-27T14:05:16.969Z,17.85
2018-09-27T14:07:20.952Z,11.80
2018-09-27T14:09:24.420Z,14.03
2018-09-27T14:11:27.948Z,14.40
2018-09-27T14:13:31.424Z,16.57
2018-09-27T14:15:34.958Z,15.80
2018-09-27T14:17:38.536Z,16.05
2018-09-27T14:19:42.220Z,14.28
2018-09-27T14:21:45.708Z,14.18
2018-09-27T14:23:49.467Z,13.13
2018-09-27T14:25:53.592Z,13.90
2018-09-27T14:27:56.980Z,15.13
2018-09-27T14:30:00.856Z,12.98
2018-09-27T14:32:05.657Z,16.17
2018-09-27T14:34:09.370Z,12.25
2018-09-27T14:36:13.656Z,8.13
2018-09-27T14:38:17.753Z,12.45
2018-09-27T14:40:21.478Z,13.35
2018-09-27T14:42:24.975Z,11.70
2018-09-27T14:44:28.456Z,8.75
2018-09-27T14:46:31.964Z,11.00
2018-09-27T14:48:36.112Z,9.08
2018-09-27T14:50:39.594Z,18.55
2018-09-27T14:52:43.425Z,10.53
2018-09-27T14:54:46.771Z,9.80
2018-09-27T14:56:50.637Z,11.17
2018-09-27T14:58:54.764Z,10.70
2018-09-27T15:00:58.324Z,13.47
2018-09-27T15:03:01.934Z,11.28
2018-09-27T15:05:05.772Z,13.18
2018-09-27T15:07:09.065Z,12.77
2018-09-27T15:09:12.818Z,11.97
2018-09-27T15:11:16.352Z,7.73
2018-09-27T15:13:19.574Z,7.03
2018-09-27T15:15:22.752Z,10.40
2018-09-27T15:17:26.124Z,11.33
2018-09-27T15:19:29.317Z,6.07
2018-09-27T15:21:32.823Z,9.00
2018-09-27T15:23:36.640Z,12.67
2018-09-27T15:25:40.008Z,8.30
2018-09-27T15:27:43.886Z,16.30
2018-09-27T15:29:47.704Z,12.80
2018-09-27T15:31:51.201Z,11.40
2018-09-27T15:33:54.463Z,12.67
2018-09-27T15:35:57.668Z,13.10
2018-09-27T15:38:00.896Z,16.83
2018-09-27T15:40:04.309Z,10.30
2018-09-27T15:42:08.407Z,7.10
2018-09-27T15:44:11.571Z,11.70
2018-09-27T15:46:14.744Z,11.70
2018-09-27T15:48:18.029Z,15.67
2018-09-27T15:50:21.216Z,9.47
2018-09-27T15:52:24.434Z,14.43
2018-09-27T15:54:28.124Z,9.97
2018-09-27T15:56:31.328Z,10.37
2018-09-27T15:58:34.529Z,12.10
2018-09-27T16:00:37.896Z,10.97
2018-09-27T16:02:41.577Z,14.73
2018-09-27T16:04:45.071Z,12.65
2018-09-27T16:06:48.846Z,16.52
2018-09-27T16:08:52.369Z,14.23
2018-09-27T16:10:55.818Z,12.20
2018-09-27T16:12:59.027Z,11.27
2018-09-27T16:15:02.256Z,9.23
2018-09-27T16:17:05.677Z,12.03
2018-09-27T16:19:09.529Z,16.07
2018-09-27T16:21:13.551Z,11.77
2018-09-27T16:23:17.576Z,13.35
2018-09-27T16:25:21.068Z,11.08
2018-09-27T16:27:24.612Z,13.53
2018-09-27T16:29:28.479Z,13.83
2018-09-27T16:31:32.133Z,12.80
2018-09-27T16:33:35.402Z,11.47
2018-09-27T16:35:38.845Z,11.43
2018-09-27T16:37:42.264Z,9.37
2018-09-27T16:39:45.624Z,8.10
2018-09-27T16:41:48.947Z,12.23
2018-09-27T16:43:52.456Z,11.10
2018-09-27T16:45:55.858Z,11.03
2018-09-27T16:47:59.317Z,11.13
2018-09-27T16:50:03.112Z,14.95
2018-09-27T16:52:06.951Z,10.70
2018-09-27T16:54:10.405Z,12.80
2018-09-27T16:56:13.954Z,12.68
2018-09-27T16:58:17.144Z,12.35
2018-09-27T17:00:20.675Z,12.80
2018-09-27T17:02:23.873Z,10.00
2018-09-27T17:04:27.376Z,13.97
2018-09-27T17:06:30.621Z,13.50
2018-09-27T17:08:33.845Z,13.07
2018-09-27T17:10:37.183Z,9.30
2018-09-27T17:12:40.384Z,10.13
2018-09-27T17:14:44.188Z,6.77
2018-09-27T17:16:47.710Z,10.73
2018-09-27T17:18:50.922Z,9.77
2018-09-27T17:20:54.692Z,9.83
2018-09-27T17:22:57.952Z,9.60
2018-09-27T17:25:01.281Z,12.20
2018-09-27T17:27:04.832Z,14.70
2018-09-27T17:29:08.031Z,14.30
2018-09-27T17:31:11.316Z,15.47
2018-09-27T17:33:14.852Z,13.63
2018-09-27T17:35:18.212Z,11.07
2018-09-27T17:37:21.475Z,11.17
2018-09-27T17:39:24.842Z,13.73
2018-09-27T17:41:28.062Z,12.37
2018-09-27T17:43:31.253Z,15.13
2018-09-27T17:45:34.664Z,12.67
2018-09-27T17:47:38.064Z,13.40
2018-09-27T17:49:41.381Z,14.83
2018-09-27T17:51:44.732Z,12.80
2018-09-27T17:53:48.052Z,14.23
2018-09-27T17:55:51.264Z,21.27
2018-09-27T17:57:54.876Z,18.50
2018-09-27T18:00:00.036Z,16.97
2018-09-27T18:02:03.210Z,17.60
2018-09-27T18:04:06.427Z,17.43
2018-09-27T18:06:10.032Z,16.90
2018-09-27T18:08:13.574Z,16.03
2018-09-27T18:10:16.869Z,19.90
2018-09-27T18:12:20.289Z,14.67
2018-09-27T18:14:23.543Z,17.50
2018-09-27T18:16:26.726Z,13.40
2018-09-27T18:18:30.117Z,17.00
2018-09-27T18:20:33.357Z,17.93
2018-09-27T18:24:46.522Z,13.73
2018-09-27T18:26:49.721Z,19.73
2018-09-27T18:28:52.960Z,17.10
2018-09-27T18:30:56.627Z,16.47
2018-09-27T18:32:59.930Z,16.20
2018-09-27T18:35:03.118Z,17.30
2018-09-27T18:37:07.108Z,17.07
2018-09-27T18:39:11.877Z,18.20
2018-09-27T18:41:15.275Z,15.73
2018-09-27T18:43:18.577Z,19.60
2018-09-27T18:45:21.860Z,16.60
2018-09-27T18:47:25.095Z,13.63
2018-09-27T18:49:28.319Z,19.77
2018-09-27T18:51:31.846Z,15.43
2018-09-27T18:53:35.697Z,16.57
2018-09-27T18:55:38.954Z,16.00
2018-09-27T18:57:42.193Z,19.17
2018-09-27T18:59:45.557Z,18.10
2018-09-27T19:01:48.808Z,16.43
2018-09-27T19:03:51.993Z,17.43
2018-09-27T19:05:55.226Z,18.97
2018-09-27T19:07:58.416Z,22.80
2018-09-27T19:10:01.597Z,15.37
2018-09-27T19:12:05.307Z,19.60
2018-09-27T19:14:08.620Z,18.53
2018-09-27T19:16:12.012Z,20.20
2018-09-27T19:18:15.300Z,17.30
2018-09-27T19:20:19.414Z,17.53
2018-09-27T19:22:22.637Z,20.50
2018-09-27T19:24:27.893Z,28.43
2018-09-27T19:26:31.089Z,30.20
2018-09-27T19:28:34.332Z,23.30
2018-09-27T19:30:38.162Z,18.83
2018-09-27T19:32:41.392Z,18.30
2018-09-27T19:34:44.642Z,20.43
2018-09-27T19:36:47.912Z,22.97
2018-09-27T19:38:51.120Z,18.97
2018-09-27T19:40:54.420Z,20.83
2018-09-27T19:42:57.756Z,21.47
2018-09-27T19:45:01.087Z,18.73
2018-09-27T19:47:04.528Z,20.43
2018-09-27T19:49:07.937Z,20.13
2018-09-27T19:51:11.134Z,23.03
2018-09-27T19:53:14.720Z,19.83
2018-09-27T19:55:17.910Z,29.90
2018-09-27T19:57:21.185Z,25.13
2018-09-27T19:59:24.398Z,31.67
2018-09-27T20:01:27.853Z,20.20
2018-09-27T20:03:31.444Z,17.00
2018-09-27T20:05:34.977Z,20.97
2018-09-27T20:07:38.201Z,20.67
2018-09-27T20:09:41.405Z,19.97
2018-09-27T20:11:44.762Z,20.70
2018-09-27T20:13:48.306Z,25.53
2018-09-27T20:15:51.508Z,21.03
2018-09-27T20:17:54.989Z,21.60
2018-09-27T20:19:58.267Z,25.50
2018-09-27T20:22:01.485Z,22.73
2018-09-27T20:24:04.968Z,23.90
2018-09-27T20:26:08.157Z,20.87
2018-09-27T20:28:11.819Z,18.47
2018-09-27T20:30:15.384Z,22.80
2018-09-27T20:32:18.635Z,24.17
2018-09-27T20:34:21.943Z,18.50
2018-09-27T20:36:25.522Z,27.43
2018-09-27T20:38:29.187Z,23.40
2018-09-27T20:40:32.366Z,20.90
2018-09-27T20:42:35.903Z,20.10
2018-09-27T20:44:39.295Z,19.83
2018-09-27T20:46:42.537Z,17.50
2018-09-27T20:48:45.985Z,17.07
2018-09-27T20:50:49.376Z,13.47
2018-09-27T20:52:52.569Z,13.03
2018-09-27T20:54:55.777Z,11.50
2018-09-27T20:56:58.972Z,13.70
2018-09-27T20:59:02.832Z,10.70
2018-09-27T21:01:07.255Z,12.18
2018-09-27T21:03:10.983Z,14.60
2018-09-27T21:05:14.354Z,11.17
2018-09-27T21:07:17.534Z,13.83
2018-09-27T21:09:20.690Z,12.87
2018-09-27T21:11:23.835Z,18.00
2018-09-27T21:13:27.020Z,11.77
2018-09-27T21:15:30.467Z,12.70
2018-09-27T21:17:33.655Z,14.70
2018-09-27T21:19:37.832Z,16.35
2018-09-27T21:21:41.000Z,14.23
2018-09-27T21:23:44.185Z,10.67
2018-09-27T21:25:47.644Z,10.87
2018-09-27T21:27:50.820Z,14.83
2018-09-27T21:29:53.975Z,12.60
2018-09-27T21:31:57.606Z,16.27
2018-09-27T21:34:00.821Z,23.63
2018-09-27T21:36:04.437Z,10.33
2018-09-27T21:38:07.643Z,11.87
2018-09-27T21:40:10.880Z,12.53
2018-09-27T21:42:14.660Z,14.13
2018-09-27T21:44:17.837Z,10.97
2018-09-27T21:46:21.085Z,14.90
2018-09-27T21:48:24.276Z,12.60
2018-09-27T21:50:27.708Z,12.93
2018-09-27T21:52:31.037Z,18.37
2018-09-27T21:54:34.220Z,11.97
2018-09-27T21:56:37.404Z,21.47
2018-09-27T21:58:41.117Z,17.80
2018-09-27T22:00:44.305Z,14.57
2018-09-27T22:02:47.867Z,17.93
2018-09-27T22:04:51.046Z,22.07
2018-09-27T22:06:54.552Z,20.43
2018-09-27T22:08:57.738Z,14.10
2018-09-27T22:11:00.949Z,17.80
2018-09-27T22:13:04.128Z,21.80
2018-09-27T22:15:07.304Z,16.90
2018-09-27T22:17:10.889Z,22.97
2018-09-27T22:19:14.343Z,19.27
2018-09-27T22:21:17.734Z,21.17
2018-09-27T22:23:21.539Z,20.13
2018-09-27T22:25:24.785Z,19.80
2018-09-27T22:27:27.969Z,20.93
2018-09-27T22:29:31.158Z,19.83
2018-09-27T22:31:34.753Z,21.23
2018-09-27T22:33:37.900Z,17.43
2018-09-27T22:35:41.228Z,22.70
2018-09-27T22:37:44.377Z,30.33
2018-09-27T22:39:47.562Z,25.30
2018-09-27T22:41:50.824Z,29.17
2018-09-27T22:43:54.017Z,24.53
2018-09-27T22:45:57.354Z,18.93
2018-09-27T22:48:00.552Z,16.63
2018-09-27T22:50:04.056Z,29.47
2018-09-27T22:52:07.840Z,35.45
2018-09-27T22:54:11.061Z,33.70
2018-09-27T22:56:14.562Z,33.70
2018-09-27T22:58:17.736Z,34.47
2018-09-27T23:00:21.140Z,33.10
2018-09-27T23:02:24.302Z,22.07
2018-09-27T23:04:27.650Z,27.30
2018-09-27T23:06:30.833Z,31.80
2018-09-27T23:08:34.005Z,37.57
2018-09-27T23:10:37.192Z,34.57
2018-09-27T23:12:40.767Z,33.27
2018-09-27T23:14:44.464Z,43.77
2018-09-27T23:16:47.647Z,32.63
2018-09-27T23:18:50.844Z,27.77
2018-09-27T23:20:54.017Z,52.13
2018-09-27T23:22:57.184Z,35.13
2018-09-27T23:25:00.356Z,31.50
2018-09-27T23:27:03.524Z,36.87
2018-09-27T23:29:07.174Z,40.40
2018-09-27T23:31:10.488Z,47.83
2018-09-27T23:33:13.650Z,42.40
2018-09-27T23:35:17.152Z,34.53
2018-09-27T23:37:20.348Z,39.20
2018-09-27T23:39:23.585Z,22.63
2018-09-27T23:41:26.807Z,18.57
2018-09-27T23:43:30.432Z,15.00
2018-09-27T23:45:33.949Z,25.17
2018-09-27T23:47:37.537Z,13.13
2018-09-27T23:49:40.741Z,5.63
2018-09-27T23:51:43.916Z,15.53
2018-09-27T23:53:47.492Z,10.20
2018-09-27T23:55:51.102Z,13.15
2018-09-27T23:57:54.348Z,9.70
2018-09-27T23:59:58.208Z,19.10
